createdAt,value
2023-08-15T00:01:17.899Z,5.53
2023-08-15T00:03:48.361Z,4.82
2023-08-15T00:06:16.715Z,5.68
2023-08-15T00:08:45.181Z,4.68
2023-08-15T00:11:13.477Z,4.55
2023-08-15T00:13:41.930Z,4.68
2023-08-15T00:16:10.220Z,5.45
2023-08-15T00:18:39.629Z,5.35
2023-08-15T00:21:09.402Z,5.10
2023-08-15T00:23:37.927Z,4.30
2023-08-15T00:26:06.111Z,4.88
2023-08-15T00:28:34.278Z,5.72
2023-08-15T00:31:02.601Z,5.85
2023-08-15T00:33:30.751Z,5.30
2023-08-15T00:35:58.843Z,5.35
2023-08-15T00:38:28.410Z,5.30
2023-08-15T00:40:56.516Z,5.30
2023-08-15T00:43:24.753Z,4.95
2023-08-15T00:45:53.505Z,5.63
2023-08-15T00:48:24.108Z,5.50
2023-08-15T00:50:52.399Z,4.88
2023-08-15T00:53:22.074Z,5.68
2023-08-15T00:55:53.265Z,5.60
2023-08-15T00:58:22.415Z,5.50
2023-08-15T01:00:51.881Z,5.03
2023-08-15T01:03:20.752Z,4.85
2023-08-15T01:05:50.033Z,5.60
2023-08-15T01:08:19.265Z,5.53
2023-08-15T01:10:47.449Z,5.40
2023-08-15T01:13:24.520Z,5.43
2023-08-15T01:15:54.486Z,5.07
2023-08-15T01:18:29.433Z,6.07
2023-08-15T01:20:58.680Z,5.57
2023-08-15T01:23:36.449Z,5.78
2023-08-15T01:26:04.579Z,5.95
2023-08-15T01:28:33.565Z,6.45
2023-08-15T01:31:08.088Z,5.30
2023-08-15T01:33:40.245Z,5.70
2023-08-15T01:36:14.389Z,5.68
2023-08-15T01:38:47.258Z,5.78
2023-08-15T01:41:20.525Z,5.28
2023-08-15T01:43:50.249Z,4.90
2023-08-15T01:46:18.624Z,5.55
2023-08-15T01:48:46.872Z,5.18
2023-08-15T01:51:15.866Z,5.63
2023-08-15T01:53:49.559Z,5.93
2023-08-15T01:56:17.591Z,5.72
2023-08-15T01:58:45.598Z,5.15
2023-08-15T02:01:13.956Z,5.80
2023-08-15T02:03:42.140Z,5.45
2023-08-15T02:06:10.535Z,5.43
2023-08-15T02:08:38.650Z,5.63
2023-08-15T02:11:08.393Z,5.88
2023-08-15T02:13:36.577Z,6.00
2023-08-15T02:16:05.082Z,6.00
2023-08-15T02:18:34.406Z,5.70
2023-08-15T02:21:02.455Z,5.28
2023-08-15T02:23:31.817Z,6.05
2023-08-15T02:26:00.209Z,5.82
2023-08-15T02:28:29.797Z,5.82
2023-08-15T02:30:58.223Z,5.45
2023-08-15T02:33:27.574Z,6.07
2023-08-15T02:35:56.134Z,5.00
2023-08-15T02:38:24.361Z,7.55
2023-08-15T02:40:52.489Z,7.50
2023-08-15T02:43:20.805Z,6.20
2023-08-15T02:45:50.222Z,6.95
2023-08-15T02:48:18.511Z,6.50
2023-08-15T02:50:47.656Z,6.60
2023-08-15T02:53:16.043Z,6.57
2023-08-15T02:55:44.437Z,6.78
2023-08-15T02:58:12.516Z,7.78
2023-08-15T03:00:40.614Z,6.88
2023-08-15T03:03:12.328Z,6.85
2023-08-15T03:05:41.629Z,7.07
2023-08-15T03:08:09.842Z,6.82
2023-08-15T03:10:40.341Z,6.45
2023-08-15T03:13:08.584Z,7.30
2023-08-15T03:15:38.376Z,7.32
2023-08-15T03:18:06.904Z,8.50
2023-08-15T03:20:36.391Z,7.22
2023-08-15T03:23:04.762Z,7.60
2023-08-15T03:25:32.866Z,8.00
2023-08-15T03:28:01.077Z,8.45
2023-08-15T03:30:29.307Z,7.25
2023-08-15T03:32:57.536Z,7.38
2023-08-15T03:35:25.681Z,8.07
2023-08-15T03:37:55.518Z,6.90
2023-08-15T03:40:23.707Z,7.45
2023-08-15T03:42:51.856Z,8.68
2023-08-15T03:45:20.104Z,7.40
2023-08-15T03:47:49.593Z,7.95
2023-08-15T03:50:17.734Z,8.13
2023-08-15T03:52:45.861Z,7.68
2023-08-15T03:55:15.963Z,7.50
2023-08-15T03:57:44.185Z,7.75
2023-08-15T04:00:14.667Z,8.55
2023-08-15T04:02:43.102Z,7.95
2023-08-15T04:05:12.520Z,8.23
2023-08-15T04:07:41.443Z,7.63
2023-08-15T04:10:13.086Z,7.47
2023-08-15T04:12:42.818Z,8.43
2023-08-15T04:15:11.814Z,7.65
2023-08-15T04:17:40.462Z,7.57
2023-08-15T04:20:10.918Z,7.50
2023-08-15T04:22:39.473Z,7.90
2023-08-15T04:25:09.402Z,9.43
2023-08-15T04:27:37.829Z,7.38
2023-08-15T04:30:10.373Z,8.82
2023-08-15T04:32:38.605Z,8.43
2023-08-15T04:35:07.444Z,8.23
2023-08-15T04:37:35.876Z,8.55
2023-08-15T04:40:04.854Z,7.90
2023-08-15T04:42:33.163Z,7.45
2023-08-15T04:45:01.605Z,7.30
2023-08-15T04:47:31.134Z,7.55
2023-08-15T04:49:59.413Z,8.52
2023-08-15T04:52:27.928Z,7.90
2023-08-15T04:54:56.488Z,7.43
2023-08-15T04:57:25.154Z,7.10
2023-08-15T04:59:53.773Z,6.93
2023-08-15T05:02:22.517Z,7.68
2023-08-15T05:04:52.446Z,7.15
2023-08-15T05:07:21.086Z,7.22
2023-08-15T05:09:49.822Z,6.88
2023-08-15T05:12:18.230Z,7.18
2023-08-15T05:14:46.430Z,7.78
2023-08-15T05:17:14.974Z,7.05
2023-08-15T05:19:43.416Z,6.85
2023-08-15T05:22:13.152Z,6.63
2023-08-15T05:24:41.580Z,6.18
2023-08-15T05:27:14.093Z,7.03
2023-08-15T05:29:43.601Z,7.05
2023-08-15T05:32:11.964Z,6.65
2023-08-15T05:34:40.787Z,6.88
2023-08-15T05:37:08.990Z,7.50
2023-08-15T05:39:38.973Z,7.72
2023-08-15T05:42:07.361Z,7.78
2023-08-15T05:44:35.912Z,7.60
2023-08-15T05:47:04.113Z,7.90
2023-08-15T05:49:32.994Z,7.82
2023-08-15T05:52:02.799Z,7.55
2023-08-15T05:54:34.682Z,9.32
2023-08-15T05:57:04.805Z,8.45
2023-08-15T05:59:33.053Z,6.55
2023-08-15T06:02:02.924Z,8.90
2023-08-15T06:04:31.577Z,6.90
2023-08-15T06:07:00.423Z,7.78
2023-08-15T06:09:28.802Z,7.47
2023-08-15T06:11:56.989Z,6.97
2023-08-15T06:14:27.612Z,7.20
2023-08-15T06:16:56.345Z,6.82
2023-08-15T06:19:25.409Z,6.53
2023-08-15T06:21:54.061Z,6.25
2023-08-15T06:24:22.643Z,6.15
2023-08-15T06:26:51.643Z,6.30
2023-08-15T06:29:20.052Z,7.15
2023-08-15T06:31:49.944Z,7.32
2023-08-15T06:34:18.685Z,7.07
2023-08-15T06:36:48.335Z,7.20
2023-08-15T06:39:16.854Z,6.45
2023-08-15T06:41:45.735Z,5.82
2023-08-15T06:44:14.034Z,5.88
2023-08-15T06:46:43.343Z,6.03
2023-08-15T06:49:13.010Z,5.72
2023-08-15T06:51:41.592Z,5.50
2023-08-15T06:54:10.210Z,5.32
2023-08-15T06:56:38.773Z,6.25
2023-08-15T06:59:07.462Z,5.10
2023-08-15T07:01:35.642Z,6.38
2023-08-15T07:04:03.978Z,5.72
2023-08-15T07:06:33.809Z,4.90
2023-08-15T07:09:01.927Z,4.95
2023-08-15T07:11:30.177Z,4.90
2023-08-15T07:13:58.467Z,5.43
2023-08-15T07:16:28.035Z,4.95
2023-08-15T07:18:56.527Z,5.07
2023-08-15T07:21:28.725Z,5.10
2023-08-15T07:23:58.437Z,4.65
2023-08-15T07:26:26.621Z,4.90
2023-08-15T07:28:55.470Z,5.13
2023-08-15T07:31:23.820Z,4.70
2023-08-15T07:33:52.311Z,5.03
2023-08-15T07:36:21.393Z,5.38
2023-08-15T07:38:49.850Z,5.45
2023-08-15T07:41:19.886Z,5.35
2023-08-15T07:43:48.757Z,6.03
2023-08-15T07:46:17.353Z,6.28
2023-08-15T07:48:46.741Z,6.03
2023-08-15T07:51:16.661Z,5.93
2023-08-15T07:53:45.389Z,6.60
2023-08-15T07:56:14.096Z,6.28
2023-08-15T07:58:44.692Z,6.68
2023-08-15T08:01:13.503Z,6.85
2023-08-15T08:03:43.790Z,6.45
2023-08-15T08:06:31.743Z,6.28
2023-08-15T08:09:00.858Z,6.35
2023-08-15T08:11:29.347Z,6.57
2023-08-15T08:13:59.876Z,6.40
2023-08-15T08:16:28.876Z,7.18
2023-08-15T08:18:59.483Z,6.53
2023-08-15T08:21:28.634Z,5.95
2023-08-15T08:23:57.417Z,6.53
2023-08-15T08:26:25.798Z,7.18
2023-08-15T08:28:54.556Z,6.43
2023-08-15T08:31:24.407Z,6.03
2023-08-15T08:33:52.974Z,6.57
2023-08-15T08:36:21.687Z,7.03
2023-08-15T08:38:50.050Z,7.07
2023-08-15T08:41:19.948Z,6.55
2023-08-15T08:43:49.135Z,6.75
2023-08-15T08:46:18.764Z,7.28
2023-08-15T08:48:50.676Z,6.18
2023-08-15T08:51:22.016Z,7.00
2023-08-15T08:53:50.360Z,6.82
2023-08-15T08:56:21.308Z,5.72
2023-08-15T08:58:52.379Z,7.10
2023-08-15T09:01:21.134Z,7.40
2023-08-15T09:03:51.819Z,6.93
2023-08-15T09:06:20.810Z,7.75
2023-08-15T09:08:49.286Z,7.32
2023-08-15T09:11:18.091Z,7.30
2023-08-15T09:13:49.728Z,7.90
2023-08-15T09:16:18.691Z,8.52
2023-08-15T09:18:50.810Z,7.55
2023-08-15T09:21:19.284Z,7.85
2023-08-15T09:23:48.646Z,7.45
2023-08-15T09:26:18.012Z,7.22
2023-08-15T09:28:47.127Z,7.95
2023-08-15T09:31:15.557Z,7.90
2023-08-15T09:33:44.274Z,6.80
2023-08-15T09:36:14.397Z,6.05
2023-08-15T09:38:42.949Z,6.22
2023-08-15T09:41:14.464Z,6.20
2023-08-15T09:43:52.774Z,5.78
2023-08-15T09:46:24.732Z,5.97
2023-08-15T09:48:54.657Z,6.80
2023-08-15T09:51:26.556Z,7.50
2023-08-15T09:53:55.410Z,6.78
2023-08-15T09:56:24.131Z,8.00
2023-08-15T09:58:52.361Z,8.63
2023-08-15T10:01:26.141Z,7.88
2023-08-15T10:03:56.354Z,7.60
2023-08-15T10:06:29.923Z,7.90
2023-08-15T10:09:00.942Z,6.70
2023-08-15T10:11:31.871Z,8.45
2023-08-15T10:14:00.292Z,7.30
2023-08-15T10:16:29.126Z,7.55
2023-08-15T10:19:01.453Z,8.00
2023-08-15T10:21:49.423Z,7.15
2023-08-15T10:24:17.762Z,6.75
2023-08-15T10:26:47.379Z,7.88
2023-08-15T10:29:16.079Z,7.63
2023-08-15T10:31:45.289Z,7.70
2023-08-15T10:34:15.893Z,7.47
2023-08-15T10:36:48.093Z,7.57
2023-08-15T10:39:17.594Z,6.10
2023-08-15T10:41:46.034Z,6.70
2023-08-15T10:44:14.331Z,6.65
2023-08-15T10:46:42.902Z,6.72
2023-08-15T10:49:13.078Z,6.88
2023-08-15T10:51:43.727Z,6.50
2023-08-15T10:54:16.031Z,6.80
2023-08-15T10:56:45.484Z,6.68
2023-08-15T10:59:16.392Z,7.53
2023-08-15T11:01:46.443Z,6.22
2023-08-15T11:04:16.690Z,6.60
2023-08-15T11:06:46.978Z,5.88
2023-08-15T11:09:17.168Z,5.40
2023-08-15T11:11:46.532Z,5.35
2023-08-15T11:14:19.640Z,5.57
2023-08-15T11:16:49.390Z,5.60
2023-08-15T11:19:17.959Z,4.72
2023-08-15T11:21:46.286Z,4.05
2023-08-15T11:24:14.439Z,4.13
2023-08-15T11:26:44.120Z,3.70
2023-08-15T11:29:14.262Z,3.45
2023-08-15T11:31:43.679Z,3.50
2023-08-15T11:34:13.408Z,3.22
2023-08-15T11:36:42.120Z,3.05
2023-08-15T11:39:14.458Z,3.30
2023-08-15T11:41:46.275Z,2.75
2023-08-15T11:44:14.428Z,3.00
2023-08-15T11:49:18.719Z,2.83
2023-08-15T11:51:47.884Z,2.58
2023-08-15T11:54:16.518Z,2.63
2023-08-15T11:56:53.202Z,2.90
2023-08-15T11:59:21.830Z,3.10
2023-08-15T12:01:52.274Z,3.67
2023-08-15T12:04:21.666Z,2.63
2023-08-15T12:06:52.130Z,3.17
2023-08-15T12:09:21.068Z,3.50
2023-08-15T12:11:50.116Z,3.00
2023-08-15T12:14:23.783Z,2.65
2023-08-15T12:16:52.117Z,2.90
2023-08-15T12:19:23.013Z,4.28
2023-08-15T12:21:54.322Z,3.22
2023-08-15T12:24:23.998Z,3.65
2023-08-15T12:26:52.405Z,2.75
2023-08-15T12:29:20.808Z,3.42
2023-08-15T12:32:11.093Z,3.10
2023-08-15T12:34:39.626Z,3.17
2023-08-15T12:37:07.830Z,3.65
2023-08-15T12:39:36.275Z,2.80
2023-08-15T12:42:05.502Z,2.80
2023-08-15T12:44:33.856Z,3.00
2023-08-15T12:47:02.421Z,3.38
2023-08-15T12:49:32.498Z,3.15
2023-08-15T12:52:00.974Z,2.70
2023-08-15T12:54:29.292Z,3.22
2023-08-15T12:56:58.023Z,2.75
2023-08-15T12:59:26.416Z,3.60
2023-08-15T13:01:55.168Z,2.70
2023-08-15T13:04:23.575Z,2.85
2023-08-15T13:06:53.480Z,3.05
2023-08-15T13:09:22.029Z,2.72
2023-08-15T13:11:50.260Z,3.00
2023-08-15T13:14:22.554Z,3.30
2023-08-15T13:16:53.394Z,3.20
2023-08-15T13:19:21.644Z,3.42
2023-08-15T13:21:50.153Z,3.80
2023-08-15T13:24:20.190Z,2.80
2023-08-15T13:26:48.581Z,2.83
2023-08-15T13:29:16.870Z,3.30
2023-08-15T13:31:45.226Z,3.65
2023-08-15T13:34:14.113Z,4.05
2023-08-15T13:36:42.306Z,3.35
2023-08-15T13:39:11.686Z,3.33
2023-08-15T13:41:42.142Z,3.08
2023-08-15T13:44:11.430Z,3.72
2023-08-15T13:46:39.782Z,3.22
2023-08-15T13:49:07.968Z,3.30
2023-08-15T13:51:36.341Z,3.45
2023-08-15T13:54:06.370Z,3.33
2023-08-15T13:56:34.474Z,3.72
2023-08-15T13:59:04.360Z,4.20
2023-08-15T14:01:34.512Z,3.60
2023-08-15T14:04:03.693Z,3.55
2023-08-15T14:06:32.218Z,3.40
2023-08-15T14:09:00.761Z,3.22
2023-08-15T14:11:29.664Z,3.28
2023-08-15T14:13:57.973Z,3.25
2023-08-15T14:16:28.559Z,3.17
2023-08-15T14:18:58.380Z,3.28
2023-08-15T14:21:26.995Z,2.90
2023-08-15T14:23:55.571Z,3.67
2023-08-15T14:26:23.989Z,3.35
2023-08-15T14:28:54.494Z,3.25
2023-08-15T14:31:23.054Z,2.75
2023-08-15T14:33:53.673Z,3.05
2023-08-15T14:36:22.513Z,2.55
2023-08-15T14:38:52.800Z,3.05
2023-08-15T14:41:23.152Z,2.90
2023-08-15T14:43:51.857Z,3.13
2023-08-15T14:46:20.918Z,3.15
2023-08-15T14:48:49.389Z,3.17
2023-08-15T14:51:21.342Z,2.35
2023-08-15T14:53:49.865Z,2.83
2023-08-15T14:56:18.740Z,3.53
2023-08-15T14:58:47.464Z,2.88
2023-08-15T15:01:16.134Z,2.58
2023-08-15T15:03:44.922Z,2.80
2023-08-15T15:06:14.198Z,2.80
2023-08-15T15:08:44.307Z,2.15
2023-08-15T15:11:14.418Z,3.08
2023-08-15T15:13:45.365Z,3.88
2023-08-15T15:16:15.005Z,3.05
2023-08-15T15:18:44.298Z,2.72
2023-08-15T15:21:12.667Z,2.78
2023-08-15T15:23:45.771Z,3.20
2023-08-15T15:26:15.510Z,2.92
2023-08-15T15:28:43.994Z,2.63
2023-08-15T15:31:12.812Z,3.00
2023-08-15T15:33:42.668Z,4.05
2023-08-15T15:36:11.752Z,3.85
2023-08-15T15:38:43.466Z,4.10
2023-08-15T15:41:13.476Z,4.03
2023-08-15T15:43:42.060Z,4.88
2023-08-15T15:46:10.877Z,4.10
2023-08-15T15:48:39.958Z,4.45
2023-08-15T15:51:08.475Z,4.05
2023-08-15T15:53:37.289Z,4.22
2023-08-15T15:56:06.341Z,4.50
2023-08-15T15:58:36.293Z,5.28
2023-08-15T16:01:04.669Z,4.38
2023-08-15T16:03:34.143Z,4.32
2023-08-15T16:06:02.803Z,4.45
2023-08-15T16:08:31.105Z,4.43
2023-08-15T16:10:59.607Z,4.63
2023-08-15T16:13:28.496Z,3.97
2023-08-15T16:15:58.273Z,4.10
2023-08-15T16:18:27.508Z,3.70
2023-08-15T16:20:55.617Z,4.45
2023-08-15T16:23:24.520Z,4.97
2023-08-15T16:25:53.897Z,4.88
2023-08-15T16:28:22.268Z,4.20
2023-08-15T16:30:50.877Z,4.80
2023-08-15T16:33:21.170Z,4.57
2023-08-15T16:35:49.639Z,3.80
2023-08-15T16:38:18.461Z,4.70
2023-08-15T16:40:46.866Z,4.35
2023-08-15T16:43:16.704Z,4.38
2023-08-15T16:45:46.630Z,5.00
2023-08-15T16:48:16.437Z,4.78
2023-08-15T16:50:46.558Z,4.32
2023-08-15T16:53:15.199Z,4.63
2023-08-15T16:55:46.886Z,4.47
2023-08-15T16:58:16.007Z,4.80
2023-08-15T17:00:44.624Z,4.82
2023-08-15T17:03:13.346Z,5.65
2023-08-15T17:05:41.776Z,5.38
2023-08-15T17:08:11.710Z,5.25
2023-08-15T17:10:40.202Z,5.05
2023-08-15T17:13:08.679Z,5.32
2023-08-15T17:15:36.905Z,4.82
2023-08-15T17:18:06.027Z,6.25
2023-08-15T17:20:34.964Z,5.78
2023-08-15T17:23:03.130Z,4.85
2023-08-15T17:25:33.013Z,5.30
2023-08-15T17:28:01.357Z,5.28
2023-08-15T17:30:31.328Z,5.05
2023-08-15T17:33:00.293Z,4.80
2023-08-15T17:35:28.889Z,5.47
2023-08-15T17:37:58.204Z,4.90
2023-08-15T17:40:26.549Z,4.82
2023-08-15T17:42:56.604Z,4.72
2023-08-15T17:45:25.015Z,5.43
2023-08-15T17:47:53.845Z,4.85
2023-08-15T17:50:22.323Z,4.72
2023-08-15T17:52:51.187Z,5.18
2023-08-15T17:55:19.442Z,4.97
2023-08-15T17:57:48.690Z,4.93
2023-08-15T18:00:19.403Z,5.03
2023-08-15T18:02:47.776Z,4.53
2023-08-15T18:05:17.240Z,4.55
2023-08-15T18:07:45.976Z,5.05
2023-08-15T18:10:14.623Z,4.63
2023-08-15T18:12:44.101Z,4.85
2023-08-15T18:15:13.738Z,5.30
2023-08-15T18:17:43.572Z,5.10
2023-08-15T18:20:12.324Z,4.55
2023-08-15T18:22:40.782Z,5.53
2023-08-15T18:25:09.990Z,5.22
2023-08-15T18:27:38.306Z,5.35
2023-08-15T18:30:08.016Z,4.88
2023-08-15T18:32:36.719Z,5.00
2023-08-15T18:35:08.521Z,4.80
2023-08-15T18:37:36.678Z,5.55
2023-08-15T18:40:05.308Z,5.15
2023-08-15T18:42:33.621Z,5.40
2023-08-15T18:45:01.916Z,5.25
2023-08-15T18:47:30.288Z,5.65
2023-08-15T18:49:58.443Z,4.68
2023-08-15T18:52:30.344Z,4.85
2023-08-15T18:54:59.570Z,4.45
2023-08-15T18:57:28.605Z,4.60
2023-08-15T18:59:57.119Z,4.88
2023-08-15T19:02:26.022Z,5.05
2023-08-15T19:04:59.218Z,4.15
2023-08-15T19:07:29.259Z,3.75
2023-08-15T19:09:58.064Z,4.40
2023-08-15T19:12:28.678Z,4.35
2023-08-15T19:15:02.786Z,4.03
2023-08-15T19:17:31.174Z,3.85
2023-08-15T19:20:00.131Z,4.50
2023-08-15T19:22:30.059Z,4.20
2023-08-15T19:24:58.343Z,4.47
2023-08-15T19:27:27.252Z,4.45
2023-08-15T19:29:56.177Z,3.75
2023-08-15T19:32:24.828Z,4.32
2023-08-15T19:34:53.479Z,5.20
2023-08-15T19:37:36.240Z,5.00
2023-08-15T19:40:10.428Z,4.20
2023-08-15T19:42:42.760Z,4.40
2023-08-15T19:45:15.436Z,5.43
2023-08-15T19:47:44.235Z,5.38
2023-08-15T19:50:12.976Z,5.43
2023-08-15T19:52:41.198Z,5.30
2023-08-15T19:55:12.139Z,5.05
2023-08-15T19:57:41.417Z,5.05
2023-08-15T20:00:11.841Z,5.85
2023-08-15T20:02:41.293Z,5.57
2023-08-15T20:05:10.806Z,5.45
2023-08-15T20:07:40.202Z,5.10
2023-08-15T20:10:12.508Z,5.15
2023-08-15T20:12:41.472Z,4.73
2023-08-15T20:15:10.881Z,4.93
2023-08-15T20:17:39.498Z,5.38
2023-08-15T20:20:09.132Z,4.10
2023-08-15T20:22:37.743Z,5.50
2023-08-15T20:25:07.186Z,5.03
2023-08-15T20:27:36.974Z,5.35
2023-08-15T20:30:06.258Z,4.47
2023-08-15T20:32:34.603Z,5.00
2023-08-15T20:35:03.332Z,6.18
2023-08-15T20:37:32.665Z,5.03
2023-08-15T20:40:00.878Z,4.97
2023-08-15T20:42:29.010Z,5.28
2023-08-15T20:44:59.037Z,5.00
2023-08-15T20:47:27.249Z,5.40
2023-08-15T20:49:55.292Z,5.43
2023-08-15T20:52:24.060Z,5.13
2023-08-15T20:54:52.629Z,5.38
2023-08-15T20:57:20.659Z,6.35
2023-08-15T20:59:48.796Z,4.50
2023-08-15T21:02:18.377Z,4.07
2023-08-15T21:04:46.598Z,4.60
2023-08-15T21:07:14.770Z,4.30
2023-08-15T21:09:42.886Z,4.50
2023-08-15T21:12:11.240Z,4.38
2023-08-15T21:14:39.232Z,4.50
2023-08-15T21:17:07.729Z,4.65
2023-08-15T21:19:37.703Z,4.32
2023-08-15T21:22:06.901Z,5.13
2023-08-15T21:24:35.429Z,5.28
2023-08-15T21:27:03.860Z,4.82
2023-08-15T21:29:32.599Z,5.25
2023-08-15T21:32:01.886Z,5.03
2023-08-15T21:34:30.597Z,5.18
2023-08-15T21:37:00.236Z,5.13
2023-08-15T21:39:28.819Z,5.55
2023-08-15T21:41:57.497Z,7.55
2023-08-15T21:44:26.019Z,6.30
2023-08-15T21:46:54.550Z,6.13
2023-08-15T21:49:22.951Z,7.00
2023-08-15T21:51:51.237Z,6.45
2023-08-15T21:54:21.869Z,6.00
2023-08-15T21:56:50.769Z,4.60
2023-08-15T21:59:19.267Z,4.50
2023-08-15T22:01:47.966Z,4.90
2023-08-15T22:04:16.327Z,4.57
2023-08-15T22:06:44.539Z,5.03
2023-08-15T22:09:12.658Z,5.03
2023-08-15T22:11:42.383Z,6.10
2023-08-15T22:14:10.666Z,5.75
2023-08-15T22:16:39.096Z,6.78
2023-08-15T22:19:07.446Z,5.82
2023-08-15T22:21:35.561Z,6.43
2023-08-15T22:24:04.879Z,5.60
2023-08-15T22:26:33.322Z,6.05
2023-08-15T22:29:02.745Z,5.10
2023-08-15T22:31:31.355Z,5.90
2023-08-15T22:34:01.017Z,5.53
2023-08-15T22:36:29.840Z,6.05
2023-08-15T22:38:57.995Z,5.22
2023-08-15T22:41:26.383Z,4.95
2023-08-15T22:43:54.593Z,5.20
2023-08-15T22:46:24.473Z,5.72
2023-08-15T22:48:53.281Z,5.80
2023-08-15T22:51:21.506Z,5.65
2023-08-15T22:53:49.582Z,5.35
2023-08-15T22:56:17.628Z,6.05
2023-08-15T22:58:46.038Z,5.72
2023-08-15T23:01:14.212Z,6.15
2023-08-15T23:03:44.403Z,6.40
2023-08-15T23:06:12.776Z,5.65
2023-08-15T23:08:41.939Z,5.88
2023-08-15T23:11:10.161Z,7.63
2023-08-15T23:13:38.388Z,6.80
2023-08-15T23:16:06.867Z,7.97
2023-08-15T23:18:35.103Z,6.28
2023-08-15T23:21:04.955Z,6.20
2023-08-15T23:23:33.211Z,5.65
2023-08-15T23:26:01.929Z,6.28
2023-08-15T23:28:29.952Z,6.00
2023-08-15T23:30:58.457Z,5.82
2023-08-15T23:33:26.990Z,6.20
2023-08-15T23:35:55.435Z,6.00
2023-08-15T23:38:25.030Z,5.78
2023-08-15T23:40:54.460Z,5.97
2023-08-15T23:43:22.777Z,5.50
2023-08-15T23:45:53.125Z,6.25
2023-08-15T23:48:21.429Z,5.72
2023-08-15T23:50:49.552Z,5.63
2023-08-15T23:53:18.008Z,5.55
2023-08-15T23:55:47.854Z,6.55
2023-08-15T23:58:15.972Z,5.63
